sensor_id;sensor_type;location;lat;lon;timestamp;temperature;humidity
20759;DHT22;10539;53.686;9.158;2022-07-31T00:00:37;20.00;99.90
20759;DHT22;10539;53.686;9.158;2022-07-31T00:03:03;20.00;99.90
20759;DHT22;10539;53.686;9.158;2022-07-31T00:05:29;19.90;99.90
20759;DHT22;10539;53.686;9.158;2022-07-31T00:07:56;19.90;99.90
20759;DHT22;10539;53.686;9.158;2022-07-31T00:10:22;19.90;99.90
20759;DHT22;10539;53.686;9.158;2022-07-31T00:12:48;19.80;99.90
20759;DHT22;10539;53.686;9.158;2022-07-31T00:15:13;19.80;99.90
20759;DHT22;10539;53.686;9.158;2022-07-31T00:17:41;19.80;99.90
20759;DHT22;10539;53.686;9.158;2022-07-31T00:20:08;19.80;99.90
20759;DHT22;10539;53.686;9.158;2022-07-31T00:22:34;19.80;99.90
20759;DHT22;10539;53.686;9.158;2022-07-31T00:25:00;19.80;99.90
20759;DHT22;10539;53.686;9.158;2022-07-31T00:27:25;19.80;99.90
20759;DHT22;10539;53.686;9.158;2022-07-31T00:29:51;19.80;99.90
20759;DHT22;10539;53.686;9.158;2022-07-31T00:32:17;19.70;99.90
20759;DHT22;10539;53.686;9.158;2022-07-31T00:34:43;19.70;99.90
20759;DHT22;10539;53.686;9.158;2022-07-31T00:37:09;19.70;99.90
20759;DHT22;10539;53.686;9.158;2022-07-31T00:39:34;19.70;99.90
20759;DHT22;10539;53.686;9.158;2022-07-31T00:42:01;19.60;99.90
20759;DHT22;10539;53.686;9.158;2022-07-31T00:44:27;19.60;99.90
20759;DHT22;10539;53.686;9.158;2022-07-31T00:46:53;19.60;99.90
20759;DHT22;10539;53.686;9.158;2022-07-31T00:49:19;19.50;99.90
20759;DHT22;10539;53.686;9.158;2022-07-31T00:51:45;19.50;99.90
20759;DHT22;10539;53.686;9.158;2022-07-31T00:54:11;19.50;99.90
20759;DHT22;10539;53.686;9.158;2022-07-31T00:56:36;19.50;99.90
20759;DHT22;10539;53.686;9.158;2022-07-31T00:59:03;19.50;99.90
20759;DHT22;10539;53.686;9.158;2022-07-31T01:01:29;19.50;99.90
20759;DHT22;10539;53.686;9.158;2022-07-31T01:03:55;19.50;99.90
20759;DHT22;10539;53.686;9.158;2022-07-31T01:06:21;19.50;99.90
20759;DHT22;10539;53.686;9.158;2022-07-31T01:08:47;19.50;99.90
20759;DHT22;10539;53.686;9.158;2022-07-31T01:14:18;19.50;99.90
20759;DHT22;10539;53.686;9.158;2022-07-31T01:16:47;19.50;99.90
20759;DHT22;10539;53.686;9.158;2022-07-31T01:19:35;19.50;99.90
20759;DHT22;10539;53.686;9.158;2022-07-31T01:22:28;19.40;99.90
20759;DHT22;10539;53.686;9.158;2022-07-31T01:30:31;19.20;99.90
20759;DHT22;10539;53.686;9.158;2022-07-31T01:33:04;19.10;99.90
20759;DHT22;10539;53.686;9.158;2022-07-31T01:35:44;19.10;99.90
20759;DHT22;10539;53.686;9.158;2022-07-31T01:38:25;19.10;99.90
20759;DHT22;10539;53.686;9.158;2022-07-31T01:41:01;18.90;99.90
20759;DHT22;10539;53.686;9.158;2022-07-31T01:43:38;18.90;99.90
20759;DHT22;10539;53.686;9.158;2022-07-31T01:46:05;18.90;99.90
20759;DHT22;10539;53.686;9.158;2022-07-31T01:48:32;18.90;99.90
20759;DHT22;10539;53.686;9.158;2022-07-31T01:51:00;18.90;99.90
20759;DHT22;10539;53.686;9.158;2022-07-31T01:53:28;19.00;99.90
20759;DHT22;10539;53.686;9.158;2022-07-31T01:55:58;19.00;99.90
20759;DHT22;10539;53.686;9.158;2022-07-31T01:58:24;19.10;99.90
20759;DHT22;10539;53.686;9.158;2022-07-31T02:00:53;19.10;99.90
20759;DHT22;10539;53.686;9.158;2022-07-31T02:03:20;19.10;99.90
20759;DHT22;10539;53.686;9.158;2022-07-31T02:05:46;19.10;99.90
20759;DHT22;10539;53.686;9.158;2022-07-31T02:08:14;19.00;99.90
20759;DHT22;10539;53.686;9.158;2022-07-31T02:10:42;19.00;99.90
20759;DHT22;10539;53.686;9.158;2022-07-31T02:13:10;19.00;99.90
20759;DHT22;10539;53.686;9.158;2022-07-31T02:15:36;19.00;99.90
20759;DHT22;10539;53.686;9.158;2022-07-31T02:18:02;19.00;99.90
20759;DHT22;10539;53.686;9.158;2022-07-31T02:20:29;19.00;99.90
20759;DHT22;10539;53.686;9.158;2022-07-31T02:22:57;18.90;99.90
20759;DHT22;10539;53.686;9.158;2022-07-31T02:25:23;18.90;99.90
20759;DHT22;10539;53.686;9.158;2022-07-31T02:27:50;18.90;99.90
20759;DHT22;10539;53.686;9.158;2022-07-31T02:30:16;18.80;99.90
20759;DHT22;10539;53.686;9.158;2022-07-31T02:32:46;18.90;99.90
20759;DHT22;10539;53.686;9.158;2022-07-31T02:35:15;18.90;99.90
20759;DHT22;10539;53.686;9.158;2022-07-31T02:37:43;19.00;99.90
20759;DHT22;10539;53.686;9.158;2022-07-31T02:40:11;19.00;99.90
20759;DHT22;10539;53.686;9.158;2022-07-31T02:42:39;19.00;99.90
20759;DHT22;10539;53.686;9.158;2022-07-31T02:45:07;18.90;99.90
20759;DHT22;10539;53.686;9.158;2022-07-31T02:47:34;18.90;99.90
20759;DHT22;10539;53.686;9.158;2022-07-31T02:50:02;18.90;99.90
20759;DHT22;10539;53.686;9.158;2022-07-31T02:52:28;19.00;99.90
20759;DHT22;10539;53.686;9.158;2022-07-31T02:54:54;19.00;99.90
20759;DHT22;10539;53.686;9.158;2022-07-31T02:57:21;19.00;99.90
20759;DHT22;10539;53.686;9.158;2022-07-31T02:59:47;19.00;99.90
20759;DHT22;10539;53.686;9.158;2022-07-31T03:02:13;19.00;99.90
20759;DHT22;10539;53.686;9.158;2022-07-31T03:04:38;19.00;99.90
20759;DHT22;10539;53.686;9.158;2022-07-31T03:07:04;19.00;99.90
20759;DHT22;10539;53.686;9.158;2022-07-31T03:09:30;19.10;99.90
20759;DHT22;10539;53.686;9.158;2022-07-31T03:11:56;19.10;99.90
20759;DHT22;10539;53.686;9.158;2022-07-31T03:14:23;19.10;99.90
20759;DHT22;10539;53.686;9.158;2022-07-31T03:16:51;19.10;99.90
20759;DHT22;10539;53.686;9.158;2022-07-31T03:19:19;19.00;99.90
20759;DHT22;10539;53.686;9.158;2022-07-31T03:21:45;19.00;99.90
20759;DHT22;10539;53.686;9.158;2022-07-31T03:24:11;19.00;99.90
20759;DHT22;10539;53.686;9.158;2022-07-31T03:26:37;19.00;99.90
20759;DHT22;10539;53.686;9.158;2022-07-31T03:29:03;19.10;99.90
20759;DHT22;10539;53.686;9.158;2022-07-31T03:31:29;19.10;99.90
20759;DHT22;10539;53.686;9.158;2022-07-31T03:33:55;19.00;99.90
20759;DHT22;10539;53.686;9.158;2022-07-31T03:36:21;19.00;99.90
20759;DHT22;10539;53.686;9.158;2022-07-31T03:38:47;18.90;99.90
20759;DHT22;10539;53.686;9.158;2022-07-31T03:41:13;19.00;99.90
20759;DHT22;10539;53.686;9.158;2022-07-31T03:43:41;19.00;99.90
20759;DHT22;10539;53.686;9.158;2022-07-31T03:46:08;19.00;99.90
20759;DHT22;10539;53.686;9.158;2022-07-31T03:48:34;19.00;99.90
20759;DHT22;10539;53.686;9.158;2022-07-31T03:51:01;19.00;99.90
20759;DHT22;10539;53.686;9.158;2022-07-31T03:53:28;19.10;99.90
20759;DHT22;10539;53.686;9.158;2022-07-31T03:55:54;19.10;99.90
20759;DHT22;10539;53.686;9.158;2022-07-31T03:58:22;19.10;99.90
20759;DHT22;10539;53.686;9.158;2022-07-31T04:00:49;19.00;99.90
20759;DHT22;10539;53.686;9.158;2022-07-31T04:03:15;19.00;99.90
20759;DHT22;10539;53.686;9.158;2022-07-31T04:05:41;19.00;99.90
20759;DHT22;10539;53.686;9.158;2022-07-31T04:08:08;18.90;99.90
20759;DHT22;10539;53.686;9.158;2022-07-31T04:10:35;18.90;99.90
20759;DHT22;10539;53.686;9.158;2022-07-31T04:13:02;18.90;99.90
20759;DHT22;10539;53.686;9.158;2022-07-31T04:15:28;18.80;99.90
20759;DHT22;10539;53.686;9.158;2022-07-31T04:17:54;18.80;99.90
20759;DHT22;10539;53.686;9.158;2022-07-31T04:20:20;18.70;99.90
20759;DHT22;10539;53.686;9.158;2022-07-31T04:22:46;18.70;99.90
20759;DHT22;10539;53.686;9.158;2022-07-31T04:25:13;18.70;99.90
20759;DHT22;10539;53.686;9.158;2022-07-31T04:27:39;18.70;99.90
20759;DHT22;10539;53.686;9.158;2022-07-31T04:30:05;18.70;99.90
20759;DHT22;10539;53.686;9.158;2022-07-31T04:32:34;18.60;99.90
20759;DHT22;10539;53.686;9.158;2022-07-31T04:35:00;18.60;99.90
20759;DHT22;10539;53.686;9.158;2022-07-31T04:37:28;18.60;99.90
20759;DHT22;10539;53.686;9.158;2022-07-31T04:39:54;18.60;99.90
20759;DHT22;10539;53.686;9.158;2022-07-31T04:42:20;18.60;99.90
20759;DHT22;10539;53.686;9.158;2022-07-31T04:44:46;18.60;99.90
20759;DHT22;10539;53.686;9.158;2022-07-31T04:47:12;18.60;99.90
20759;DHT22;10539;53.686;9.158;2022-07-31T04:49:38;18.60;99.90
20759;DHT22;10539;53.686;9.158;2022-07-31T04:52:04;18.60;99.90
20759;DHT22;10539;53.686;9.158;2022-07-31T04:54:31;18.60;99.90
20759;DHT22;10539;53.686;9.158;2022-07-31T04:56:57;18.60;99.90
20759;DHT22;10539;53.686;9.158;2022-07-31T04:59:23;18.60;99.90
20759;DHT22;10539;53.686;9.158;2022-07-31T05:01:49;18.60;99.90
20759;DHT22;10539;53.686;9.158;2022-07-31T05:04:16;18.60;99.90
20759;DHT22;10539;53.686;9.158;2022-07-31T05:06:47;18.60;99.90
20759;DHT22;10539;53.686;9.158;2022-07-31T05:09:18;18.60;99.90
20759;DHT22;10539;53.686;9.158;2022-07-31T05:11:46;18.60;99.90
20759;DHT22;10539;53.686;9.158;2022-07-31T05:14:14;18.60;99.90
20759;DHT22;10539;53.686;9.158;2022-07-31T05:16:41;18.60;99.90
20759;DHT22;10539;53.686;9.158;2022-07-31T05:19:06;18.70;99.90
20759;DHT22;10539;53.686;9.158;2022-07-31T05:21:33;18.70;99.90
20759;DHT22;10539;53.686;9.158;2022-07-31T05:23:59;18.70;99.90
20759;DHT22;10539;53.686;9.158;2022-07-31T05:26:27;18.70;99.90
20759;DHT22;10539;53.686;9.158;2022-07-31T05:28:54;18.70;99.90
20759;DHT22;10539;53.686;9.158;2022-07-31T05:31:21;18.70;99.90
20759;DHT22;10539;53.686;9.158;2022-07-31T05:33:48;18.70;99.90
20759;DHT22;10539;53.686;9.158;2022-07-31T05:36:14;18.70;99.90
20759;DHT22;10539;53.686;9.158;2022-07-31T05:38:40;18.70;99.90
20759;DHT22;10539;53.686;9.158;2022-07-31T05:41:07;18.70;99.90
20759;DHT22;10539;53.686;9.158;2022-07-31T05:43:33;18.70;99.90
20759;DHT22;10539;53.686;9.158;2022-07-31T05:45:59;18.70;99.90
20759;DHT22;10539;53.686;9.158;2022-07-31T05:48:24;18.70;99.90
20759;DHT22;10539;53.686;9.158;2022-07-31T05:50:51;18.70;99.90
20759;DHT22;10539;53.686;9.158;2022-07-31T05:53:18;18.70;99.90
20759;DHT22;10539;53.686;9.158;2022-07-31T05:55:47;18.70;99.90
20759;DHT22;10539;53.686;9.158;2022-07-31T05:58:14;18.70;99.90
20759;DHT22;10539;53.686;9.158;2022-07-31T06:00:41;18.80;99.90
20759;DHT22;10539;53.686;9.158;2022-07-31T06:03:07;18.80;99.90
20759;DHT22;10539;53.686;9.158;2022-07-31T06:05:33;18.80;99.90
20759;DHT22;10539;53.686;9.158;2022-07-31T06:07:59;18.80;99.90
20759;DHT22;10539;53.686;9.158;2022-07-31T06:10:26;18.90;99.90
20759;DHT22;10539;53.686;9.158;2022-07-31T06:12:53;18.90;99.90
20759;DHT22;10539;53.686;9.158;2022-07-31T06:15:19;18.90;99.90
20759;DHT22;10539;53.686;9.158;2022-07-31T06:17:45;18.90;99.90
20759;DHT22;10539;53.686;9.158;2022-07-31T06:20:11;18.90;99.90
20759;DHT22;10539;53.686;9.158;2022-07-31T06:22:38;19.00;99.90
20759;DHT22;10539;53.686;9.158;2022-07-31T06:25:07;19.00;99.90
20759;DHT22;10539;53.686;9.158;2022-07-31T06:27:34;19.00;99.90
20759;DHT22;10539;53.686;9.158;2022-07-31T06:30:00;19.10;99.90
20759;DHT22;10539;53.686;9.158;2022-07-31T06:32:26;19.20;99.90
20759;DHT22;10539;53.686;9.158;2022-07-31T06:34:51;19.30;99.90
20759;DHT22;10539;53.686;9.158;2022-07-31T06:37:17;19.40;99.90
20759;DHT22;10539;53.686;9.158;2022-07-31T06:39:44;19.50;99.90
20759;DHT22;10539;53.686;9.158;2022-07-31T06:42:10;19.60;99.90
20759;DHT22;10539;53.686;9.158;2022-07-31T06:44:35;19.80;99.90
20759;DHT22;10539;53.686;9.158;2022-07-31T06:47:01;19.90;99.90
20759;DHT22;10539;53.686;9.158;2022-07-31T06:49:27;20.00;99.90
20759;DHT22;10539;53.686;9.158;2022-07-31T06:51:52;20.10;99.90
20759;DHT22;10539;53.686;9.158;2022-07-31T06:54:18;20.20;99.90
20759;DHT22;10539;53.686;9.158;2022-07-31T06:56:44;20.30;99.90
20759;DHT22;10539;53.686;9.158;2022-07-31T06:59:10;20.40;99.90
20759;DHT22;10539;53.686;9.158;2022-07-31T07:01:35;20.50;99.90
20759;DHT22;10539;53.686;9.158;2022-07-31T07:04:01;20.80;99.90
20759;DHT22;10539;53.686;9.158;2022-07-31T07:06:27;20.90;99.90
20759;DHT22;10539;53.686;9.158;2022-07-31T07:08:53;20.90;99.90
20759;DHT22;10539;53.686;9.158;2022-07-31T07:11:19;20.90;99.90
20759;DHT22;10539;53.686;9.158;2022-07-31T07:13:45;21.00;99.90
20759;DHT22;10539;53.686;9.158;2022-07-31T07:16:11;21.30;99.90
20759;DHT22;10539;53.686;9.158;2022-07-31T07:18:37;21.70;99.90
20759;DHT22;10539;53.686;9.158;2022-07-31T07:21:03;22.00;99.90
20759;DHT22;10539;53.686;9.158;2022-07-31T07:23:29;22.00;99.90
20759;DHT22;10539;53.686;9.158;2022-07-31T07:25:55;21.90;99.90
20759;DHT22;10539;53.686;9.158;2022-07-31T07:28:21;21.90;99.90
20759;DHT22;10539;53.686;9.158;2022-07-31T07:30:47;22.00;99.90
20759;DHT22;10539;53.686;9.158;2022-07-31T07:33:12;21.90;99.90
20759;DHT22;10539;53.686;9.158;2022-07-31T07:35:38;21.80;99.90
20759;DHT22;10539;53.686;9.158;2022-07-31T07:38:04;21.70;99.90
20759;DHT22;10539;53.686;9.158;2022-07-31T07:40:31;21.60;99.90
20759;DHT22;10539;53.686;9.158;2022-07-31T07:42:57;21.50;99.90
20759;DHT22;10539;53.686;9.158;2022-07-31T07:45:23;21.50;99.90
20759;DHT22;10539;53.686;9.158;2022-07-31T07:47:49;21.40;99.90
20759;DHT22;10539;53.686;9.158;2022-07-31T07:50:15;21.40;99.90
20759;DHT22;10539;53.686;9.158;2022-07-31T07:52:41;21.50;99.90
20759;DHT22;10539;53.686;9.158;2022-07-31T07:55:08;21.40;99.90
20759;DHT22;10539;53.686;9.158;2022-07-31T07:57:35;21.50;99.90
20759;DHT22;10539;53.686;9.158;2022-07-31T08:00:06;21.50;99.90
20759;DHT22;10539;53.686;9.158;2022-07-31T08:02:32;21.50;99.90
20759;DHT22;10539;53.686;9.158;2022-07-31T08:04:59;21.50;99.90
20759;DHT22;10539;53.686;9.158;2022-07-31T08:07:27;21.60;99.90
20759;DHT22;10539;53.686;9.158;2022-07-31T08:09:54;21.60;99.90
20759;DHT22;10539;53.686;9.158;2022-07-31T08:12:20;21.70;99.90
20759;DHT22;10539;53.686;9.158;2022-07-31T08:14:45;21.70;99.90
20759;DHT22;10539;53.686;9.158;2022-07-31T08:17:11;21.80;99.90
20759;DHT22;10539;53.686;9.158;2022-07-31T08:19:37;21.90;99.90
20759;DHT22;10539;53.686;9.158;2022-07-31T08:22:03;22.00;99.90
20759;DHT22;10539;53.686;9.158;2022-07-31T08:24:28;22.10;99.90
20759;DHT22;10539;53.686;9.158;2022-07-31T08:26:54;22.20;99.90
20759;DHT22;10539;53.686;9.158;2022-07-31T08:29:39;22.20;99.90
20759;DHT22;10539;53.686;9.158;2022-07-31T08:32:05;22.30;99.90
20759;DHT22;10539;53.686;9.158;2022-07-31T08:34:30;22.40;99.90
20759;DHT22;10539;53.686;9.158;2022-07-31T08:36:57;22.40;99.90
20759;DHT22;10539;53.686;9.158;2022-07-31T08:39:23;22.40;99.90
20759;DHT22;10539;53.686;9.158;2022-07-31T08:41:48;22.40;99.90
20759;DHT22;10539;53.686;9.158;2022-07-31T08:44:14;22.50;99.90
20759;DHT22;10539;53.686;9.158;2022-07-31T08:46:40;22.60;99.90
20759;DHT22;10539;53.686;9.158;2022-07-31T08:49:07;22.70;99.90
20759;DHT22;10539;53.686;9.158;2022-07-31T08:51:39;22.80;99.90
20759;DHT22;10539;53.686;9.158;2022-07-31T08:54:09;22.80;99.90
20759;DHT22;10539;53.686;9.158;2022-07-31T08:56:38;22.90;99.90
20759;DHT22;10539;53.686;9.158;2022-07-31T08:59:06;22.90;99.90
20759;DHT22;10539;53.686;9.158;2022-07-31T09:01:35;23.00;99.90
20759;DHT22;10539;53.686;9.158;2022-07-31T09:04:02;23.00;99.90
20759;DHT22;10539;53.686;9.158;2022-07-31T09:06:28;23.10;99.90
20759;DHT22;10539;53.686;9.158;2022-07-31T09:08:57;23.20;99.90
20759;DHT22;10539;53.686;9.158;2022-07-31T09:11:22;23.30;99.90
20759;DHT22;10539;53.686;9.158;2022-07-31T09:14:00;23.40;99.90
20759;DHT22;10539;53.686;9.158;2022-07-31T09:16:26;23.50;99.90
20759;DHT22;10539;53.686;9.158;2022-07-31T09:19:03;23.50;99.90
20759;DHT22;10539;53.686;9.158;2022-07-31T09:21:40;23.60;99.90
20759;DHT22;10539;53.686;9.158;2022-07-31T09:24:07;23.70;99.90
20759;DHT22;10539;53.686;9.158;2022-07-31T09:26:36;23.70;99.90
20759;DHT22;10539;53.686;9.158;2022-07-31T09:29:07;23.80;99.90
20759;DHT22;10539;53.686;9.158;2022-07-31T09:31:37;23.90;99.90
20759;DHT22;10539;53.686;9.158;2022-07-31T09:34:03;24.00;99.90
20759;DHT22;10539;53.686;9.158;2022-07-31T09:36:33;24.20;99.90
20759;DHT22;10539;53.686;9.158;2022-07-31T09:38:58;24.40;99.90
20759;DHT22;10539;53.686;9.158;2022-07-31T09:41:25;24.60;99.90
20759;DHT22;10539;53.686;9.158;2022-07-31T09:43:55;24.80;99.90
20759;DHT22;10539;53.686;9.158;2022-07-31T09:46:21;24.90;99.90
20759;DHT22;10539;53.686;9.158;2022-07-31T09:48:53;24.90;99.90
20759;DHT22;10539;53.686;9.158;2022-07-31T09:51:20;24.90;99.90
20759;DHT22;10539;53.686;9.158;2022-07-31T09:53:49;25.00;99.90
20759;DHT22;10539;53.686;9.158;2022-07-31T09:56:30;25.00;99.90
20759;DHT22;10539;53.686;9.158;2022-07-31T09:58:56;25.00;99.90
20759;DHT22;10539;53.686;9.158;2022-07-31T10:01:23;25.00;99.90
20759;DHT22;10539;53.686;9.158;2022-07-31T10:03:49;25.00;99.90
20759;DHT22;10539;53.686;9.158;2022-07-31T10:06:18;25.10;99.90
20759;DHT22;10539;53.686;9.158;2022-07-31T10:08:45;25.20;99.90
20759;DHT22;10539;53.686;9.158;2022-07-31T10:11:12;25.40;99.90
20759;DHT22;10539;53.686;9.158;2022-07-31T10:13:45;25.50;99.90
20759;DHT22;10539;53.686;9.158;2022-07-31T10:16:13;25.60;99.90
20759;DHT22;10539;53.686;9.158;2022-07-31T10:18:41;25.60;99.90
20759;DHT22;10539;53.686;9.158;2022-07-31T10:21:10;25.60;99.90
20759;DHT22;10539;53.686;9.158;2022-07-31T10:23:40;25.50;99.90
20759;DHT22;10539;53.686;9.158;2022-07-31T10:26:06;25.50;99.90
20759;DHT22;10539;53.686;9.158;2022-07-31T10:28:35;25.40;99.90
20759;DHT22;10539;53.686;9.158;2022-07-31T10:31:01;25.30;99.90
20759;DHT22;10539;53.686;9.158;2022-07-31T10:33:27;25.30;99.90
20759;DHT22;10539;53.686;9.158;2022-07-31T10:38:40;25.20;99.90
20759;DHT22;10539;53.686;9.158;2022-07-31T10:41:22;25.10;99.90
20759;DHT22;10539;53.686;9.158;2022-07-31T10:44:00;25.10;99.90
20759;DHT22;10539;53.686;9.158;2022-07-31T10:46:32;25.10;99.90
20759;DHT22;10539;53.686;9.158;2022-07-31T10:48:58;25.10;99.90
20759;DHT22;10539;53.686;9.158;2022-07-31T10:51:25;25.20;99.90
20759;DHT22;10539;53.686;9.158;2022-07-31T10:53:54;25.20;99.90
20759;DHT22;10539;53.686;9.158;2022-07-31T10:56:21;25.30;99.90
20759;DHT22;10539;53.686;9.158;2022-07-31T10:58:53;25.50;99.90
20759;DHT22;10539;53.686;9.158;2022-07-31T11:01:19;25.70;99.90
20759;DHT22;10539;53.686;9.158;2022-07-31T11:03:47;25.90;99.90
20759;DHT22;10539;53.686;9.158;2022-07-31T11:06:15;26.20;99.90
20759;DHT22;10539;53.686;9.158;2022-07-31T11:08:49;26.30;99.90
20759;DHT22;10539;53.686;9.158;2022-07-31T11:11:17;26.50;99.50
20759;DHT22;10539;53.686;9.158;2022-07-31T11:13:51;26.70;99.00
20759;DHT22;10539;53.686;9.158;2022-07-31T11:16:19;26.80;98.80
20759;DHT22;10539;53.686;9.158;2022-07-31T11:19:06;26.80;98.00
20759;DHT22;10539;53.686;9.158;2022-07-31T11:21:38;26.80;98.90
20759;DHT22;10539;53.686;9.158;2022-07-31T11:24:19;26.80;98.90
20759;DHT22;10539;53.686;9.158;2022-07-31T11:26:55;26.80;99.10
20759;DHT22;10539;53.686;9.158;2022-07-31T11:31:59;26.80;99.40
20759;DHT22;10539;53.686;9.158;2022-07-31T11:34:25;26.80;99.70
20759;DHT22;10539;53.686;9.158;2022-07-31T11:36:51;26.70;99.80
20759;DHT22;10539;53.686;9.158;2022-07-31T11:39:16;26.80;99.90
20759;DHT22;10539;53.686;9.158;2022-07-31T11:41:42;26.80;99.90
20759;DHT22;10539;53.686;9.158;2022-07-31T11:44:08;26.90;99.90
20759;DHT22;10539;53.686;9.158;2022-07-31T11:46:34;27.00;99.90
20759;DHT22;10539;53.686;9.158;2022-07-31T11:49:02;27.00;99.90
20759;DHT22;10539;53.686;9.158;2022-07-31T11:51:29;27.00;99.90
20759;DHT22;10539;53.686;9.158;2022-07-31T11:53:56;27.10;99.90
20759;DHT22;10539;53.686;9.158;2022-07-31T11:56:22;27.10;99.90
20759;DHT22;10539;53.686;9.158;2022-07-31T11:58:50;27.10;99.90
20759;DHT22;10539;53.686;9.158;2022-07-31T12:01:17;27.10;99.90
20759;DHT22;10539;53.686;9.158;2022-07-31T12:03:43;27.00;99.90
20759;DHT22;10539;53.686;9.158;2022-07-31T12:06:10;27.00;99.90
20759;DHT22;10539;53.686;9.158;2022-07-31T12:08:37;27.00;99.90
20759;DHT22;10539;53.686;9.158;2022-07-31T12:11:04;27.00;99.90
20759;DHT22;10539;53.686;9.158;2022-07-31T12:13:31;26.90;99.90
20759;DHT22;10539;53.686;9.158;2022-07-31T12:18:32;26.80;99.90
20759;DHT22;10539;53.686;9.158;2022-07-31T12:21:00;26.80;99.90
20759;DHT22;10539;53.686;9.158;2022-07-31T12:23:39;26.80;99.90
20759;DHT22;10539;53.686;9.158;2022-07-31T12:26:05;26.80;99.90
20759;DHT22;10539;53.686;9.158;2022-07-31T12:28:31;26.80;99.90
20759;DHT22;10539;53.686;9.158;2022-07-31T12:30:58;26.70;99.90
20759;DHT22;10539;53.686;9.158;2022-07-31T12:33:24;26.60;99.90
20759;DHT22;10539;53.686;9.158;2022-07-31T12:35:52;26.60;99.90
20759;DHT22;10539;53.686;9.158;2022-07-31T12:38:26;26.60;99.90
20759;DHT22;10539;53.686;9.158;2022-07-31T12:41:04;26.60;99.90
20759;DHT22;10539;53.686;9.158;2022-07-31T12:43:31;26.60;99.90
20759;DHT22;10539;53.686;9.158;2022-07-31T12:45:57;26.60;99.90
20759;DHT22;10539;53.686;9.158;2022-07-31T12:48:30;26.60;99.90
20759;DHT22;10539;53.686;9.158;2022-07-31T12:50:57;26.60;99.90
20759;DHT22;10539;53.686;9.158;2022-07-31T12:53:23;26.60;99.90
20759;DHT22;10539;53.686;9.158;2022-07-31T12:55:48;26.60;99.90
20759;DHT22;10539;53.686;9.158;2022-07-31T12:58:14;26.60;99.90
20759;DHT22;10539;53.686;9.158;2022-07-31T13:00:40;26.60;99.90
20759;DHT22;10539;53.686;9.158;2022-07-31T13:03:05;26.60;99.90
20759;DHT22;10539;53.686;9.158;2022-07-31T13:05:31;26.70;99.90
20759;DHT22;10539;53.686;9.158;2022-07-31T13:07:57;26.70;99.90
20759;DHT22;10539;53.686;9.158;2022-07-31T13:10:22;26.70;99.90
20759;DHT22;10539;53.686;9.158;2022-07-31T13:12:49;26.60;99.90
20759;DHT22;10539;53.686;9.158;2022-07-31T13:15:16;26.60;99.90
20759;DHT22;10539;53.686;9.158;2022-07-31T13:17:43;26.60;99.90
20759;DHT22;10539;53.686;9.158;2022-07-31T13:20:09;26.60;99.90
20759;DHT22;10539;53.686;9.158;2022-07-31T13:22:34;26.60;99.90
20759;DHT22;10539;53.686;9.158;2022-07-31T13:25:00;26.60;99.90
20759;DHT22;10539;53.686;9.158;2022-07-31T13:27:26;26.60;99.90
20759;DHT22;10539;53.686;9.158;2022-07-31T13:29:52;26.40;99.90
20759;DHT22;10539;53.686;9.158;2022-07-31T13:32:18;26.20;99.90
20759;DHT22;10539;53.686;9.158;2022-07-31T13:34:43;26.20;99.90
20759;DHT22;10539;53.686;9.158;2022-07-31T13:37:09;26.10;99.90
20759;DHT22;10539;53.686;9.158;2022-07-31T13:39:35;26.00;99.90
20759;DHT22;10539;53.686;9.158;2022-07-31T13:42:00;25.90;99.90
20759;DHT22;10539;53.686;9.158;2022-07-31T13:44:26;25.80;99.90
20759;DHT22;10539;53.686;9.158;2022-07-31T13:46:51;25.70;99.90
20759;DHT22;10539;53.686;9.158;2022-07-31T13:49:17;25.60;99.90
20759;DHT22;10539;53.686;9.158;2022-07-31T13:51:43;25.50;99.90
20759;DHT22;10539;53.686;9.158;2022-07-31T13:54:09;25.40;99.90
20759;DHT22;10539;53.686;9.158;2022-07-31T13:56:35;25.40;99.90
20759;DHT22;10539;53.686;9.158;2022-07-31T13:59:04;25.30;99.90
20759;DHT22;10539;53.686;9.158;2022-07-31T14:01:30;25.20;99.90
20759;DHT22;10539;53.686;9.158;2022-07-31T14:03:55;25.20;99.90
20759;DHT22;10539;53.686;9.158;2022-07-31T14:06:21;25.10;99.90
20759;DHT22;10539;53.686;9.158;2022-07-31T14:08:47;25.10;99.90
20759;DHT22;10539;53.686;9.158;2022-07-31T14:11:12;25.00;99.90
20759;DHT22;10539;53.686;9.158;2022-07-31T14:13:38;24.80;99.90
20759;DHT22;10539;53.686;9.158;2022-07-31T14:16:04;24.60;99.90
20759;DHT22;10539;53.686;9.158;2022-07-31T14:18:30;24.50;99.90
20759;DHT22;10539;53.686;9.158;2022-07-31T14:20:57;24.40;99.90
20759;DHT22;10539;53.686;9.158;2022-07-31T14:23:22;24.40;99.90
20759;DHT22;10539;53.686;9.158;2022-07-31T14:25:48;24.30;99.90
20759;DHT22;10539;53.686;9.158;2022-07-31T14:28:14;24.20;99.90
20759;DHT22;10539;53.686;9.158;2022-07-31T14:30:39;24.10;99.90
20759;DHT22;10539;53.686;9.158;2022-07-31T14:33:11;24.00;99.90
20759;DHT22;10539;53.686;9.158;2022-07-31T14:35:38;23.90;99.90
20759;DHT22;10539;53.686;9.158;2022-07-31T14:38:03;23.80;99.90
20759;DHT22;10539;53.686;9.158;2022-07-31T14:40:29;23.70;99.90
20759;DHT22;10539;53.686;9.158;2022-07-31T14:42:56;23.60;99.90
20759;DHT22;10539;53.686;9.158;2022-07-31T14:45:22;23.50;99.90
20759;DHT22;10539;53.686;9.158;2022-07-31T14:47:47;23.50;99.90
20759;DHT22;10539;53.686;9.158;2022-07-31T14:50:15;23.50;99.90
20759;DHT22;10539;53.686;9.158;2022-07-31T14:52:41;23.50;99.90
20759;DHT22;10539;53.686;9.158;2022-07-31T14:55:07;23.50;99.90
20759;DHT22;10539;53.686;9.158;2022-07-31T14:57:33;23.60;99.90
20759;DHT22;10539;53.686;9.158;2022-07-31T14:59:58;23.60;99.90
20759;DHT22;10539;53.686;9.158;2022-07-31T15:02:24;23.70;99.90
20759;DHT22;10539;53.686;9.158;2022-07-31T15:04:51;23.70;99.90
20759;DHT22;10539;53.686;9.158;2022-07-31T15:07:20;23.70;99.90
20759;DHT22;10539;53.686;9.158;2022-07-31T15:09:45;23.70;99.90
20759;DHT22;10539;53.686;9.158;2022-07-31T15:12:11;23.60;99.90
20759;DHT22;10539;53.686;9.158;2022-07-31T15:14:43;23.60;99.90
20759;DHT22;10539;53.686;9.158;2022-07-31T15:17:09;23.50;99.90
20759;DHT22;10539;53.686;9.158;2022-07-31T15:19:34;23.60;99.90
20759;DHT22;10539;53.686;9.158;2022-07-31T15:22:00;23.60;99.90
20759;DHT22;10539;53.686;9.158;2022-07-31T15:24:26;23.60;99.90
20759;DHT22;10539;53.686;9.158;2022-07-31T15:26:51;23.60;99.90
20759;DHT22;10539;53.686;9.158;2022-07-31T15:29:17;23.60;99.90
20759;DHT22;10539;53.686;9.158;2022-07-31T15:31:43;23.60;99.90
20759;DHT22;10539;53.686;9.158;2022-07-31T15:34:09;23.60;99.90
20759;DHT22;10539;53.686;9.158;2022-07-31T15:36:34;23.60;99.90
20759;DHT22;10539;53.686;9.158;2022-07-31T15:39:00;23.50;99.90
20759;DHT22;10539;53.686;9.158;2022-07-31T15:41:26;23.40;99.90
20759;DHT22;10539;53.686;9.158;2022-07-31T15:43:51;23.40;99.90
20759;DHT22;10539;53.686;9.158;2022-07-31T15:46:17;23.30;99.90